createdAt,value
2023-02-27T00:00:32.346Z,93.33
2023-02-27T00:01:35.419Z,86.83
2023-02-27T00:02:37.929Z,81.17
2023-02-27T00:03:40.303Z,76.50
2023-02-27T00:04:42.860Z,76.33
2023-02-27T00:05:45.181Z,74.00
2023-02-27T00:06:47.576Z,71.50
2023-02-27T00:07:50.882Z,72.83
2023-02-27T00:08:53.292Z,73.33
2023-02-27T00:10:36.770Z,72.33
2023-02-27T00:11:39.153Z,70.50
2023-02-27T00:12:42.237Z,70.00
2023-02-27T00:13:44.693Z,70.50
2023-02-27T00:14:47.064Z,68.83
2023-02-27T00:15:52.701Z,67.67
2023-02-27T00:16:55.044Z,66.83
2023-02-27T00:17:57.500Z,64.67
2023-02-27T00:19:01.400Z,63.67
2023-02-27T00:20:05.994Z,63.67
2023-02-27T00:21:08.386Z,61.17
2023-02-27T00:22:10.754Z,58.33
2023-02-27T00:23:13.134Z,57.33
2023-02-27T00:24:15.530Z,56.33
2023-02-27T00:25:18.273Z,54.00
2023-02-27T00:26:20.628Z,52.33
2023-02-27T00:27:23.158Z,51.00
2023-02-27T00:28:25.542Z,51.00
2023-02-27T00:29:27.978Z,50.17
2023-02-27T00:30:30.445Z,50.50
2023-02-27T00:31:33.293Z,50.17
2023-02-27T00:32:36.842Z,50.00
2023-02-27T00:33:39.373Z,50.00
2023-02-27T00:34:41.995Z,50.50
2023-02-27T00:35:44.349Z,51.00
2023-02-27T00:36:47.325Z,51.33
2023-02-27T00:37:49.976Z,52.00
2023-02-27T00:38:52.430Z,52.00
2023-02-27T00:39:54.815Z,52.67
2023-02-27T00:40:57.170Z,53.00
2023-02-27T00:41:59.581Z,53.67
2023-02-27T00:43:03.057Z,54.00
2023-02-27T00:44:05.676Z,54.83
2023-02-27T00:45:08.787Z,56.00
2023-02-27T00:46:11.171Z,56.00
2023-02-27T00:47:13.592Z,55.00
2023-02-27T00:48:16.387Z,53.33
2023-02-27T00:49:19.810Z,52.00
2023-02-27T00:50:22.191Z,51.83
2023-02-27T00:51:24.976Z,51.00
2023-02-27T00:52:28.054Z,51.00
2023-02-27T00:53:30.551Z,50.50
2023-02-27T00:54:32.927Z,49.83
2023-02-27T00:55:35.290Z,49.00
2023-02-27T00:56:37.606Z,48.33
2023-02-27T00:57:40.613Z,48.83
2023-02-27T00:58:43.015Z,51.83
2023-02-27T00:59:45.487Z,58.83
2023-02-27T01:00:47.986Z,62.00
2023-02-27T01:01:50.382Z,65.00
2023-02-27T01:02:52.872Z,67.33
2023-02-27T01:03:55.385Z,67.50
2023-02-27T01:04:57.842Z,67.00
2023-02-27T01:06:00.200Z,66.17
2023-02-27T01:07:02.629Z,66.50
2023-02-27T01:08:05.200Z,68.83
2023-02-27T01:09:07.602Z,71.00
2023-02-27T01:10:11.284Z,70.33
2023-02-27T01:11:13.767Z,70.00
2023-02-27T01:12:16.112Z,69.50
2023-02-27T01:13:18.444Z,68.50
2023-02-27T01:14:20.821Z,67.67
2023-02-27T01:15:23.150Z,66.00
2023-02-27T01:16:25.602Z,63.67
2023-02-27T01:17:28.107Z,60.67
2023-02-27T01:18:30.534Z,58.33
2023-02-27T01:19:32.922Z,57.67
2023-02-27T01:20:35.290Z,57.83
2023-02-27T01:21:37.768Z,56.83
2023-02-27T01:22:40.274Z,55.33
2023-02-27T01:23:42.643Z,54.33
2023-02-27T01:24:45.006Z,54.00
2023-02-27T01:25:48.314Z,54.00
2023-02-27T01:26:52.644Z,54.00
2023-02-27T01:27:55.177Z,54.00
2023-02-27T01:28:57.572Z,52.50
2023-02-27T01:29:59.999Z,51.67
2023-02-27T01:31:02.522Z,50.67
2023-02-27T01:32:05.082Z,48.50
2023-02-27T01:33:08.910Z,48.00
2023-02-27T01:34:11.406Z,47.17
2023-02-27T01:35:13.868Z,46.50
2023-02-27T01:36:16.292Z,45.83
2023-02-27T01:37:18.801Z,46.00
2023-02-27T01:38:21.191Z,46.00
2023-02-27T01:39:23.624Z,45.33
2023-02-27T01:40:26.029Z,44.83
2023-02-27T01:41:29.136Z,44.00
2023-02-27T01:42:31.563Z,44.00
2023-02-27T01:43:34.870Z,44.00
2023-02-27T01:45:10.658Z,44.00
2023-02-27T01:46:13.206Z,44.00
2023-02-27T01:47:15.834Z,43.17
2023-02-27T01:48:29.594Z,42.67
2023-02-27T01:49:34.048Z,42.83
2023-02-27T01:50:39.971Z,43.00
2023-02-27T01:51:48.625Z,41.00
2023-02-27T01:52:57.846Z,37.83
2023-02-27T01:54:01.533Z,36.67
2023-02-27T01:55:08.388Z,34.83
2023-02-27T01:56:15.153Z,34.00
2023-02-27T01:57:17.502Z,33.50
2023-02-27T01:58:20.189Z,33.00
2023-02-27T01:59:23.304Z,33.00
2023-02-27T02:01:30.808Z,31.83
2023-02-27T02:02:37.991Z,30.00
2023-02-27T02:03:48.557Z,27.83
2023-02-27T02:04:51.489Z,27.00
2023-02-27T02:05:56.139Z,26.33
2023-02-27T02:07:07.354Z,27.00
2023-02-27T02:08:10.181Z,27.50
2023-02-27T02:09:14.639Z,28.00
2023-02-27T02:10:18.438Z,28.67
2023-02-27T02:11:21.190Z,29.00
2023-02-27T02:12:29.577Z,29.00
2023-02-27T02:13:32.349Z,29.00
2023-02-27T02:14:34.741Z,29.00
2023-02-27T02:15:42.072Z,29.00
2023-02-27T02:16:55.304Z,29.00
2023-02-27T02:18:07.576Z,30.00
2023-02-27T02:19:35.491Z,30.33
2023-02-27T02:20:52.864Z,31.00
2023-02-27T02:22:16.990Z,32.00
2023-02-27T02:23:38.122Z,32.67
2023-02-27T02:25:01.678Z,35.50
2023-02-27T02:26:18.590Z,35.83
2023-02-27T02:28:03.052Z,33.83
2023-02-27T02:29:41.111Z,31.17
2023-02-27T02:30:52.530Z,29.17
2023-02-27T02:32:19.310Z,28.83
2023-02-27T02:33:36.096Z,26.83
2023-02-27T02:34:50.544Z,24.83
2023-02-27T02:36:19.046Z,23.33
2023-02-27T02:37:39.397Z,22.67
2023-02-27T02:38:53.690Z,21.17
2023-02-27T02:40:30.196Z,21.00
2023-02-27T02:41:54.920Z,20.00
2023-02-27T02:43:06.896Z,20.83
2023-02-27T02:44:36.630Z,23.33
2023-02-27T02:45:45.717Z,25.33
2023-02-27T02:47:02.562Z,26.00
2023-02-27T02:48:20.852Z,25.00
2023-02-27T02:49:33.515Z,24.67
2023-02-27T02:50:41.700Z,23.83
2023-02-27T02:52:04.122Z,23.00
2023-02-27T02:53:26.774Z,22.33
2023-02-27T02:54:57.186Z,22.00
2023-02-27T02:56:06.624Z,22.00
2023-02-27T02:57:14.021Z,22.00
2023-02-27T02:58:37.551Z,22.00
2023-02-27T02:59:55.532Z,22.00
2023-02-27T03:01:15.342Z,21.83
2023-02-27T03:02:23.134Z,21.67
2023-02-27T03:03:30.065Z,21.00
2023-02-27T03:04:55.672Z,21.00
2023-02-27T03:06:33.921Z,21.00
2023-02-27T03:07:57.499Z,20.00
2023-02-27T03:09:27.620Z,20.00
2023-02-27T03:10:47.333Z,20.67
2023-02-27T03:11:52.525Z,21.00
2023-02-27T03:13:18.298Z,21.00
2023-02-27T03:14:35.714Z,21.33
2023-02-27T03:15:46.090Z,22.50
2023-02-27T03:16:53.398Z,24.33
2023-02-27T03:17:56.970Z,25.00
2023-02-27T03:19:03.970Z,25.83
2023-02-27T03:20:15.530Z,26.00
2023-02-27T03:21:28.413Z,26.00
2023-02-27T03:22:42.953Z,26.00
2023-02-27T03:23:47.822Z,27.00
2023-02-27T03:24:56.153Z,27.00
2023-02-27T03:26:00.153Z,27.50
2023-02-27T03:27:05.780Z,28.83
2023-02-27T03:28:11.621Z,32.17
2023-02-27T03:29:48.967Z,36.00
2023-02-27T03:31:10.187Z,45.33
2023-02-27T03:32:18.435Z,48.17
2023-02-27T03:33:25.824Z,45.50
2023-02-27T03:34:35.706Z,44.17
2023-02-27T03:35:53.977Z,43.17
2023-02-27T03:37:16.938Z,43.00
2023-02-27T03:38:22.135Z,42.00
2023-02-27T03:39:32.861Z,42.17
2023-02-27T03:40:53.007Z,42.17
2023-02-27T03:42:10.667Z,41.67
2023-02-27T03:43:29.405Z,40.67
2023-02-27T03:44:46.252Z,39.33
2023-02-27T03:46:00.644Z,37.50
2023-02-27T03:47:03.186Z,35.83
2023-02-27T03:48:06.981Z,34.50
2023-02-27T03:49:09.458Z,32.83
2023-02-27T03:50:12.394Z,31.67
2023-02-27T03:51:18.736Z,30.17
2023-02-27T03:52:22.721Z,28.00
2023-02-27T03:53:35.598Z,27.50
2023-02-27T03:54:46.230Z,28.00
2023-02-27T03:55:50.870Z,28.33
2023-02-27T03:57:05.289Z,29.00
2023-02-27T03:58:07.652Z,29.67
2023-02-27T03:59:10.549Z,29.17
2023-02-27T04:00:18.187Z,29.33
2023-02-27T04:01:20.881Z,30.00
2023-02-27T04:02:23.295Z,30.17
2023-02-27T04:03:26.358Z,31.00
2023-02-27T04:04:32.029Z,31.00
2023-02-27T04:05:34.384Z,31.00
2023-02-27T04:06:56.934Z,31.67
2023-02-27T04:08:18.111Z,32.67
2023-02-27T04:09:41.877Z,33.00
2023-02-27T04:10:56.364Z,34.00
2023-02-27T04:12:21.817Z,34.00
2023-02-27T04:13:37.845Z,34.00
2023-02-27T04:15:09.395Z,34.33
2023-02-27T04:17:05.218Z,35.00
2023-02-27T04:18:28.620Z,36.00
2023-02-27T04:19:34.173Z,36.00
2023-02-27T04:20:44.650Z,36.00
2023-02-27T04:22:14.220Z,36.00
2023-02-27T04:23:28.335Z,36.33
2023-02-27T04:25:02.760Z,38.17
2023-02-27T04:26:18.153Z,47.83
2023-02-27T04:27:36.052Z,55.50
2023-02-27T04:28:45.355Z,62.50
2023-02-27T04:29:58.082Z,64.17
2023-02-27T04:31:15.635Z,67.67
2023-02-27T04:32:59.216Z,66.83
2023-02-27T04:34:12.701Z,64.33
2023-02-27T04:35:42.157Z,62.67
2023-02-27T04:36:50.305Z,60.17
2023-02-27T04:38:02.226Z,56.00
2023-02-27T04:39:09.798Z,53.83
2023-02-27T04:40:27.434Z,53.17
2023-02-27T04:41:57.410Z,56.17
2023-02-27T04:43:01.949Z,73.00
2023-02-27T04:44:06.732Z,83.50
2023-02-27T04:45:15.202Z,86.50
2023-02-27T04:46:22.318Z,93.67
2023-02-27T04:47:27.439Z,99.50
2023-02-27T04:48:34.516Z,99.83
2023-02-27T04:49:44.594Z,97.33
2023-02-27T04:50:55.348Z,96.50
2023-02-27T04:52:18.294Z,97.83
2023-02-27T04:53:32.872Z,99.17
2023-02-27T04:54:48.427Z,99.17
2023-02-27T04:55:54.938Z,100.83
2023-02-27T04:57:03.321Z,103.33
2023-02-27T04:58:16.108Z,106.00
2023-02-27T04:59:25.012Z,119.83
2023-02-27T05:00:30.332Z,151.50
2023-02-27T05:01:47.472Z,178.00
2023-02-27T05:02:54.899Z,183.33
2023-02-27T05:04:00.398Z,179.67
2023-02-27T05:05:08.083Z,181.33
2023-02-27T05:06:11.516Z,180.50
2023-02-27T05:07:19.172Z,170.33
2023-02-27T05:08:30.586Z,157.83
2023-02-27T05:09:41.248Z,146.00
2023-02-27T05:10:49.444Z,133.83
2023-02-27T05:12:04.126Z,132.50
2023-02-27T05:13:17.065Z,134.17
2023-02-27T05:14:24.601Z,136.00
2023-02-27T05:15:34.469Z,135.17
2023-02-27T05:17:04.371Z,128.50
2023-02-27T05:18:09.693Z,127.17
2023-02-27T05:19:12.359Z,127.33
2023-02-27T05:20:16.342Z,126.50
2023-02-27T05:21:31.390Z,126.17
2023-02-27T05:22:48.461Z,129.50
2023-02-27T05:23:55.974Z,237.33
2023-02-27T05:25:36.566Z,373.50
2023-02-27T05:26:49.849Z,412.00
2023-02-27T05:27:59.394Z,388.17
2023-02-27T05:29:20.382Z,354.67
2023-02-27T05:30:38.526Z,315.50
2023-02-27T05:32:14.975Z,297.33
2023-02-27T05:33:36.866Z,286.33
2023-02-27T05:34:57.340Z,271.17
2023-02-27T05:36:11.808Z,212.00
2023-02-27T05:37:18.054Z,190.50
2023-02-27T05:38:30.109Z,179.17
2023-02-27T05:39:36.714Z,180.00
2023-02-27T05:40:47.654Z,197.33
2023-02-27T05:41:54.680Z,189.50
2023-02-27T05:43:23.132Z,174.50
2023-02-27T05:44:33.615Z,173.67
2023-02-27T05:45:39.456Z,172.33
2023-02-27T05:46:46.486Z,165.67
2023-02-27T05:47:57.674Z,163.50
2023-02-27T05:49:08.080Z,148.33
2023-02-27T05:50:16.255Z,142.50
2023-02-27T05:51:19.941Z,140.83
2023-02-27T05:52:25.420Z,140.17
2023-02-27T05:53:32.195Z,149.50
2023-02-27T05:54:48.073Z,156.17
2023-02-27T05:55:53.890Z,171.67
2023-02-27T05:56:58.564Z,196.17
2023-02-27T05:58:13.028Z,207.67
2023-02-27T05:59:25.200Z,210.17
2023-02-27T06:00:35.842Z,207.00
2023-02-27T06:01:38.349Z,201.33
2023-02-27T06:02:42.974Z,200.17
2023-02-27T06:03:45.427Z,202.33
2023-02-27T06:04:47.928Z,200.67
2023-02-27T06:05:55.038Z,199.83
2023-02-27T06:06:57.891Z,201.17
2023-02-27T06:08:00.894Z,204.00
2023-02-27T06:09:03.501Z,206.50
2023-02-27T06:10:06.270Z,202.33
2023-02-27T06:11:08.912Z,184.50
2023-02-27T06:12:11.313Z,176.67
2023-02-27T06:13:13.682Z,176.83
2023-02-27T06:14:16.006Z,175.33
2023-02-27T06:15:19.395Z,172.00
2023-02-27T06:16:21.771Z,166.83
2023-02-27T06:17:24.148Z,160.83
2023-02-27T06:18:26.549Z,152.33
2023-02-27T06:19:30.630Z,154.67
2023-02-27T06:20:33.881Z,154.17
2023-02-27T06:21:36.256Z,145.50
2023-02-27T06:22:38.757Z,142.33
2023-02-27T06:23:41.180Z,148.17
2023-02-27T06:24:43.563Z,144.00
2023-02-27T06:25:48.368Z,139.50
2023-02-27T06:26:50.757Z,139.17
2023-02-27T06:27:53.847Z,136.00
2023-02-27T06:28:56.449Z,141.50
2023-02-27T06:29:59.690Z,143.33
2023-02-27T06:31:03.973Z,144.83
2023-02-27T06:32:08.444Z,147.50
2023-02-27T06:33:15.049Z,153.67
2023-02-27T06:34:26.170Z,165.17
2023-02-27T06:35:34.241Z,175.67
2023-02-27T06:36:41.581Z,189.17
2023-02-27T06:37:48.888Z,196.33
2023-02-27T06:39:03.382Z,205.00
2023-02-27T06:40:12.811Z,207.00
2023-02-27T06:41:24.402Z,208.50
2023-02-27T06:42:31.274Z,208.17
2023-02-27T06:43:35.250Z,209.50
2023-02-27T06:44:38.436Z,211.50
2023-02-27T06:45:41.431Z,214.17
2023-02-27T06:46:50.064Z,221.00
2023-02-27T06:47:53.947Z,232.67
2023-02-27T06:49:02.056Z,229.00
2023-02-27T06:50:06.062Z,226.00
2023-02-27T06:51:10.937Z,222.00
2023-02-27T06:52:13.775Z,217.50
2023-02-27T06:53:17.688Z,199.67
2023-02-27T06:54:23.302Z,169.83
2023-02-27T06:55:33.639Z,166.17
2023-02-27T06:56:39.026Z,162.50
2023-02-27T06:57:46.002Z,161.00
2023-02-27T06:58:48.531Z,157.00
2023-02-27T06:59:51.401Z,140.33
2023-02-27T07:00:53.765Z,122.00
2023-02-27T07:01:56.440Z,114.00
2023-02-27T07:02:58.980Z,107.33
2023-02-27T07:04:01.381Z,107.83
2023-02-27T07:05:08.185Z,106.33
2023-02-27T07:06:11.805Z,102.00
2023-02-27T07:07:35.662Z,101.50
2023-02-27T07:08:37.286Z,105.00
2023-02-27T07:09:39.657Z,97.17
2023-02-27T07:10:44.129Z,97.17
2023-02-27T07:11:46.716Z,96.50
2023-02-27T07:12:49.286Z,92.33
2023-02-27T07:13:51.671Z,77.83
2023-02-27T07:14:54.112Z,71.67
2023-02-27T07:15:56.549Z,78.33
2023-02-27T07:17:03.984Z,79.50
2023-02-27T07:18:06.635Z,69.33
2023-02-27T07:19:09.141Z,63.50
2023-02-27T07:20:12.077Z,60.50
2023-02-27T07:21:15.774Z,59.83
2023-02-27T07:22:18.447Z,61.00
2023-02-27T07:23:21.981Z,61.00
2023-02-27T07:24:24.390Z,62.17
2023-02-27T07:25:26.759Z,57.67
2023-02-27T07:26:29.431Z,54.33
2023-02-27T07:27:32.422Z,53.33
2023-02-27T07:28:35.072Z,49.17
2023-02-27T07:29:37.505Z,51.50
2023-02-27T07:30:40.019Z,53.67
2023-02-27T07:31:42.394Z,54.83
2023-02-27T07:32:44.750Z,53.00
2023-02-27T07:33:47.429Z,51.50
2023-02-27T07:34:49.885Z,52.00
2023-02-27T07:35:52.396Z,53.00
2023-02-27T07:36:54.911Z,54.00
2023-02-27T07:37:59.411Z,54.00
2023-02-27T07:39:03.791Z,51.83
2023-02-27T07:40:07.697Z,43.83
2023-02-27T07:41:21.277Z,41.00
2023-02-27T07:42:32.442Z,43.00
2023-02-27T07:43:34.858Z,46.33
2023-02-27T07:44:37.605Z,54.33
2023-02-27T07:45:40.088Z,56.00
2023-02-27T07:46:42.459Z,55.50
2023-02-27T07:47:45.654Z,55.00
2023-02-27T07:48:48.353Z,53.67
2023-02-27T07:49:50.965Z,49.83
2023-02-27T07:50:53.342Z,47.50
2023-02-27T07:51:56.357Z,46.50
2023-02-27T07:52:59.955Z,42.33
2023-02-27T07:54:03.020Z,41.00
2023-02-27T07:55:08.723Z,39.83
2023-02-27T07:56:11.098Z,36.50
2023-02-27T07:57:13.561Z,35.83
2023-02-27T07:58:15.978Z,35.50
2023-02-27T07:59:18.340Z,35.17
2023-02-27T08:00:20.897Z,36.17
2023-02-27T08:01:23.227Z,37.50
2023-02-27T08:02:25.818Z,38.00
2023-02-27T08:03:28.228Z,37.67
2023-02-27T08:04:30.841Z,37.00
2023-02-27T08:05:33.355Z,37.00
2023-02-27T08:06:35.776Z,36.17
2023-02-27T08:07:38.193Z,36.67
2023-02-27T08:08:40.661Z,37.00
2023-02-27T08:09:43.011Z,36.50
2023-02-27T08:10:45.631Z,36.33
2023-02-27T08:11:49.212Z,37.50
2023-02-27T08:12:51.685Z,38.00
2023-02-27T08:14:02.038Z,38.00
2023-02-27T08:15:06.405Z,38.00
2023-02-27T08:16:08.795Z,38.00
2023-02-27T08:17:11.673Z,38.00
2023-02-27T08:18:16.264Z,38.00
2023-02-27T08:19:18.793Z,37.83
2023-02-27T08:20:24.402Z,37.00
2023-02-27T08:21:27.374Z,37.00
2023-02-27T08:22:30.149Z,37.00
2023-02-27T08:23:34.645Z,37.50
2023-02-27T08:24:37.173Z,39.00
2023-02-27T08:25:39.588Z,39.00
2023-02-27T08:26:42.106Z,39.00
2023-02-27T08:27:44.720Z,38.67
2023-02-27T08:28:47.347Z,36.83
2023-02-27T08:29:52.264Z,35.67
2023-02-27T08:30:55.324Z,35.33
2023-02-27T08:31:58.034Z,35.33
2023-02-27T08:33:00.679Z,35.00
2023-02-27T08:34:09.389Z,33.50
2023-02-27T08:35:12.914Z,32.00
2023-02-27T08:36:15.493Z,31.17
2023-02-27T08:37:18.043Z,30.83
2023-02-27T08:38:21.086Z,30.00
2023-02-27T08:39:24.332Z,30.67
2023-02-27T08:40:29.430Z,31.00
2023-02-27T08:41:34.388Z,31.00
2023-02-27T08:42:39.844Z,31.00
2023-02-27T08:43:44.600Z,31.00
2023-02-27T08:44:50.725Z,30.33
2023-02-27T08:45:53.180Z,29.83
2023-02-27T08:46:55.576Z,29.00
2023-02-27T08:47:58.228Z,29.00
2023-02-27T08:49:00.595Z,29.00
2023-02-27T08:50:03.119Z,29.00
2023-02-27T08:51:05.610Z,29.33
2023-02-27T08:52:09.896Z,32.33
2023-02-27T08:53:12.686Z,34.00
2023-02-27T08:54:15.058Z,33.17
2023-02-27T08:55:17.476Z,33.00
2023-02-27T08:56:19.827Z,33.00
2023-02-27T08:57:22.197Z,33.00
2023-02-27T08:58:24.524Z,32.83
2023-02-27T08:59:26.933Z,32.17
2023-02-27T09:00:29.828Z,33.00
2023-02-27T09:01:34.742Z,33.00
2023-02-27T09:02:37.264Z,33.00
2023-02-27T09:03:39.706Z,34.00
2023-02-27T09:04:42.037Z,34.33
2023-02-27T09:05:44.443Z,37.50
2023-02-27T09:06:46.796Z,39.00
2023-02-27T09:07:49.386Z,38.50
2023-02-27T09:08:51.841Z,37.67
2023-02-27T09:09:54.329Z,36.17
2023-02-27T09:10:57.372Z,34.17
2023-02-27T09:11:59.763Z,34.17
2023-02-27T09:13:02.327Z,34.17
2023-02-27T09:14:04.817Z,33.00
2023-02-27T09:15:07.956Z,32.33
2023-02-27T09:16:10.427Z,31.17
2023-02-27T09:17:12.837Z,30.83
2023-02-27T09:18:15.473Z,30.00
2023-02-27T09:19:17.874Z,30.17
2023-02-27T09:20:20.305Z,31.17
2023-02-27T09:21:24.801Z,33.50
2023-02-27T09:22:27.281Z,35.00
2023-02-27T09:23:29.633Z,35.00
2023-02-27T09:24:32.066Z,34.00
2023-02-27T09:25:34.447Z,32.17
2023-02-27T09:26:45.606Z,30.17
2023-02-27T09:27:48.200Z,28.17
2023-02-27T09:28:50.926Z,27.50
2023-02-27T09:29:55.645Z,27.00
2023-02-27T09:31:02.360Z,27.17
2023-02-27T09:32:04.795Z,27.17
2023-02-27T09:33:07.209Z,27.00
2023-02-27T09:34:09.521Z,27.00
2023-02-27T09:35:11.860Z,27.33
2023-02-27T09:36:14.400Z,28.33
2023-02-27T09:37:19.301Z,29.00
2023-02-27T09:38:21.709Z,29.67
2023-02-27T09:39:24.105Z,30.17
2023-02-27T09:40:29.495Z,31.33
2023-02-27T09:41:34.782Z,32.00
2023-02-27T09:42:45.555Z,32.17
2023-02-27T09:43:50.305Z,33.50
2023-02-27T09:44:54.604Z,34.00
2023-02-27T09:45:58.535Z,33.00
2023-02-27T09:47:01.094Z,33.00
2023-02-27T09:48:08.890Z,32.67
2023-02-27T09:49:16.677Z,32.00
2023-02-27T09:50:30.593Z,32.00
2023-02-27T09:51:33.650Z,31.00
2023-02-27T09:52:37.795Z,31.00
2023-02-27T09:53:43.177Z,31.00
2023-02-27T09:54:45.842Z,30.83
2023-02-27T09:55:48.893Z,30.33
2023-02-27T09:56:57.736Z,30.00
2023-02-27T09:58:07.902Z,30.00
2023-02-27T09:59:19.788Z,30.00
2023-02-27T10:00:38.320Z,30.17
2023-02-27T10:01:55.623Z,33.83
2023-02-27T10:03:45.696Z,36.67
2023-02-27T10:05:01.589Z,36.00
2023-02-27T10:06:45.699Z,36.00
2023-02-27T10:07:56.948Z,35.83
2023-02-27T10:09:19.087Z,33.67
2023-02-27T10:10:24.080Z,31.33
2023-02-27T10:11:37.116Z,30.00
2023-02-27T10:12:51.438Z,30.00
2023-02-27T10:14:00.252Z,30.83
2023-02-27T10:15:19.041Z,31.83
2023-02-27T10:16:23.014Z,32.83
2023-02-27T10:17:34.005Z,33.17
2023-02-27T10:18:54.834Z,33.50
2023-02-27T10:20:01.269Z,33.50
2023-02-27T10:21:07.879Z,34.00
2023-02-27T10:22:21.854Z,34.00
2023-02-27T10:23:36.597Z,34.00
2023-02-27T10:24:51.225Z,34.00
2023-02-27T10:25:55.117Z,32.83
2023-02-27T10:27:00.159Z,31.50
2023-02-27T10:28:12.868Z,30.83
2023-02-27T10:29:28.309Z,30.50
2023-02-27T10:30:32.973Z,33.17
2023-02-27T10:31:37.240Z,35.00
2023-02-27T10:32:40.821Z,35.00
2023-02-27T10:33:44.296Z,35.67
2023-02-27T10:34:55.097Z,35.00
2023-02-27T10:35:58.008Z,35.00
2023-02-27T10:37:03.537Z,34.00
2023-02-27T10:38:12.951Z,33.50
2023-02-27T10:39:20.807Z,33.00
2023-02-27T10:40:25.556Z,32.67
2023-02-27T10:42:05.921Z,31.83
2023-02-27T10:44:01.504Z,32.00
2023-02-27T10:45:05.428Z,31.83
2023-02-27T10:46:14.940Z,31.50
2023-02-27T10:47:17.341Z,32.33
2023-02-27T10:48:20.350Z,33.00
2023-02-27T10:49:22.873Z,33.00
2023-02-27T10:51:07.240Z,33.00
2023-02-27T10:52:12.590Z,34.00
2023-02-27T10:53:28.032Z,34.00
2023-02-27T10:54:30.580Z,34.00
2023-02-27T10:55:36.227Z,34.50
2023-02-27T10:56:39.595Z,34.33
2023-02-27T10:57:43.269Z,35.00
2023-02-27T10:58:45.809Z,34.83
2023-02-27T10:59:54.299Z,33.83
2023-02-27T11:00:59.380Z,32.00
2023-02-27T11:02:04.558Z,31.00
2023-02-27T11:03:07.848Z,30.67
2023-02-27T11:04:13.166Z,31.00
2023-02-27T11:05:31.400Z,30.33
2023-02-27T11:06:33.901Z,28.50
2023-02-27T11:07:39.921Z,28.00
2023-02-27T11:08:43.777Z,27.83
2023-02-27T11:10:18.984Z,27.33
2023-02-27T11:11:31.213Z,28.00
2023-02-27T11:12:35.286Z,28.00
2023-02-27T11:13:45.310Z,28.00
2023-02-27T11:14:52.042Z,28.83
2023-02-27T11:16:16.599Z,30.67
2023-02-27T11:17:34.217Z,32.00
2023-02-27T11:18:39.663Z,32.00
2023-02-27T11:19:42.050Z,31.00
2023-02-27T11:20:47.294Z,30.17
2023-02-27T11:22:12.542Z,30.00
2023-02-27T11:23:19.509Z,30.00
2023-02-27T11:24:21.969Z,30.00
2023-02-27T11:25:26.347Z,30.00
2023-02-27T11:26:33.282Z,29.33
2023-02-27T11:27:35.709Z,28.83
2023-02-27T11:31:22.873Z,25.67
2023-02-27T11:32:32.383Z,25.00
2023-02-27T11:33:49.698Z,25.00
2023-02-27T11:34:52.916Z,25.67
2023-02-27T11:35:58.567Z,26.33
2023-02-27T11:37:07.821Z,27.67
2023-02-27T11:38:23.524Z,28.00
2023-02-27T11:39:39.299Z,28.83
2023-02-27T11:40:50.517Z,28.67
2023-02-27T11:41:54.684Z,28.00
2023-02-27T11:43:02.380Z,29.00
2023-02-27T11:44:05.681Z,29.00
2023-02-27T11:46:04.509Z,29.00
2023-02-27T11:46:51.684Z,29.33
2023-02-27T11:48:01.466Z,30.00
2023-02-27T11:49:47.497Z,30.00
2023-02-27T11:51:18.984Z,29.83
2023-02-27T11:52:49.306Z,29.00
2023-02-27T11:54:13.150Z,28.67
2023-02-27T11:55:20.471Z,28.00
2023-02-27T11:56:36.159Z,27.17
2023-02-27T11:57:42.585Z,27.00
2023-02-27T11:59:11.110Z,26.00
2023-02-27T12:00:26.709Z,26.00
2023-02-27T12:01:36.586Z,26.00
2023-02-27T12:03:04.611Z,26.50
2023-02-27T12:04:20.970Z,27.67
2023-02-27T12:05:32.298Z,28.00
2023-02-27T12:06:47.246Z,28.00
2023-02-27T12:08:31.010Z,28.00
2023-02-27T12:09:44.907Z,29.33
2023-02-27T12:11:07.779Z,30.00
2023-02-27T12:12:24.066Z,30.00
2023-02-27T12:13:30.423Z,30.00
2023-02-27T12:15:06.742Z,30.17
2023-02-27T12:16:33.249Z,34.00
2023-02-27T12:17:55.969Z,36.50
2023-02-27T12:19:06.112Z,38.50
2023-02-27T12:20:28.976Z,39.67
2023-02-27T12:21:37.081Z,39.00
2023-02-27T12:22:45.892Z,38.83
2023-02-27T12:23:55.872Z,39.00
2023-02-27T12:25:08.241Z,38.50
2023-02-27T12:26:23.026Z,38.00
2023-02-27T12:27:34.216Z,39.17
2023-02-27T12:29:02.382Z,41.00
2023-02-27T12:30:33.487Z,75.67
2023-02-27T12:31:35.975Z,60.17
2023-02-27T12:32:38.487Z,57.00
2023-02-27T12:34:53.422Z,55.50
2023-02-27T12:38:27.320Z,53.33
2023-02-27T12:39:56.433Z,56.33
2023-02-27T12:41:23.488Z,58.67
2023-02-27T12:42:38.089Z,61.00
2023-02-27T12:44:18.206Z,60.00
2023-02-27T12:45:48.007Z,58.00
2023-02-27T12:47:02.439Z,53.83
2023-02-27T12:48:13.832Z,48.50
2023-02-27T12:49:19.156Z,46.67
2023-02-27T12:50:26.344Z,47.50
2023-02-27T12:51:39.843Z,49.67
2023-02-27T12:53:00.916Z,49.83
2023-02-27T12:54:27.340Z,48.00
2023-02-27T12:55:39.194Z,46.83
2023-02-27T12:56:44.453Z,45.33
2023-02-27T12:57:46.830Z,43.50
2023-02-27T12:58:56.113Z,40.17
2023-02-27T13:00:13.923Z,37.00
2023-02-27T13:01:36.206Z,34.17
2023-02-27T13:02:57.662Z,31.17
2023-02-27T13:04:07.581Z,30.67
2023-02-27T13:05:13.171Z,29.83
2023-02-27T13:06:30.059Z,30.00
2023-02-27T13:08:00.318Z,30.00
2023-02-27T13:09:12.291Z,29.00
2023-02-27T13:10:34.266Z,29.67
2023-02-27T13:11:40.265Z,30.00
2023-02-27T13:12:44.791Z,30.00
2023-02-27T13:13:52.323Z,30.00
2023-02-27T13:15:04.790Z,29.83
2023-02-27T13:16:14.311Z,28.33
2023-02-27T13:17:30.538Z,27.17
2023-02-27T13:21:41.661Z,29.67
2023-02-27T13:26:11.387Z,33.00
2023-02-27T13:27:25.610Z,38.00
2023-02-27T13:28:33.325Z,43.17
2023-02-27T13:29:48.095Z,44.67
2023-02-27T13:31:09.351Z,44.83
2023-02-27T13:32:17.984Z,44.17
2023-02-27T13:33:38.752Z,44.00
2023-02-27T13:35:03.097Z,44.83
2023-02-27T13:36:11.398Z,46.50
2023-02-27T13:37:13.785Z,46.00
2023-02-27T13:38:34.580Z,45.00
2023-02-27T13:39:46.009Z,43.67
2023-02-27T13:40:48.534Z,40.67
2023-02-27T13:41:51.054Z,37.00
2023-02-27T13:42:56.945Z,35.00
2023-02-27T13:44:01.407Z,32.50
2023-02-27T13:45:06.423Z,32.00
2023-02-27T13:46:26.135Z,32.00
2023-02-27T13:47:30.996Z,31.33
2023-02-27T13:48:40.943Z,30.50
2023-02-27T13:49:43.847Z,29.33
2023-02-27T13:50:50.380Z,29.00
2023-02-27T13:51:54.602Z,29.00
2023-02-27T13:52:56.898Z,28.67
2023-02-27T13:54:13.064Z,29.00
2023-02-27T13:55:27.280Z,30.33
2023-02-27T13:56:29.721Z,33.00
2023-02-27T13:57:33.810Z,34.83
2023-02-27T13:58:43.795Z,36.67
2023-02-27T13:59:53.446Z,38.83
2023-02-27T14:00:59.560Z,40.00
2023-02-27T14:02:10.767Z,40.00
2023-02-27T14:03:21.740Z,39.00
2023-02-27T14:04:27.424Z,38.83
2023-02-27T14:05:42.437Z,38.00
2023-02-27T14:06:47.775Z,37.00
2023-02-27T14:08:00.281Z,37.00
2023-02-27T14:09:14.293Z,37.83
2023-02-27T14:10:24.186Z,38.83
2023-02-27T14:11:34.453Z,41.33
2023-02-27T14:12:45.404Z,43.00
2023-02-27T14:13:51.209Z,47.00
2023-02-27T14:14:53.935Z,51.17
2023-02-27T14:15:58.134Z,50.33
2023-02-27T14:17:01.697Z,49.50
2023-02-27T14:18:15.974Z,48.00
2023-02-27T14:19:22.543Z,44.17
2023-02-27T14:20:27.433Z,41.50
2023-02-27T14:21:51.364Z,37.33
2023-02-27T14:23:24.146Z,30.83
2023-02-27T14:24:44.785Z,28.17
2023-02-27T14:25:54.210Z,28.83
2023-02-27T14:26:57.111Z,29.00
2023-02-27T14:28:00.673Z,29.00
2023-02-27T14:29:03.600Z,28.67
2023-02-27T14:30:10.151Z,28.00
2023-02-27T14:31:35.118Z,28.00
2023-02-27T14:32:45.561Z,29.33
2023-02-27T14:33:54.315Z,30.67
2023-02-27T14:35:19.537Z,32.50
2023-02-27T14:36:25.074Z,35.50
2023-02-27T14:37:28.420Z,38.00
2023-02-27T14:38:33.907Z,39.00
2023-02-27T14:39:37.664Z,39.00
2023-02-27T14:41:18.088Z,39.67
2023-02-27T14:42:39.802Z,39.00
2023-02-27T14:43:55.343Z,39.00
2023-02-27T14:44:57.800Z,38.00
2023-02-27T14:46:32.287Z,37.33
2023-02-27T14:47:36.814Z,36.67
2023-02-27T14:48:40.209Z,36.00
2023-02-27T14:49:43.119Z,36.00
2023-02-27T14:50:45.516Z,36.00
2023-02-27T14:51:48.321Z,36.00
2023-02-27T14:52:50.734Z,35.83
2023-02-27T14:54:08.040Z,34.67
2023-02-27T14:55:36.889Z,32.17
2023-02-27T14:56:39.458Z,30.00
2023-02-27T14:57:59.128Z,30.00
2023-02-27T14:59:04.591Z,28.83